createdAt,value
2022-11-17T00:00:18.581Z,44.58
2022-11-17T00:02:20.544Z,44.95
2022-11-17T00:04:22.454Z,45.06
2022-11-17T00:06:24.264Z,45.10
2022-11-17T00:08:26.247Z,44.84
2022-11-17T00:10:28.261Z,44.81
2022-11-17T00:12:32.995Z,44.80
2022-11-17T00:14:35.129Z,45.09
2022-11-17T00:16:37.072Z,44.85
2022-11-17T00:18:39.046Z,45.01
2022-11-17T00:20:40.994Z,44.94
2022-11-17T00:22:43.059Z,44.99
2022-11-17T00:24:44.863Z,45.27
2022-11-17T00:26:46.805Z,44.77
2022-11-17T00:28:48.887Z,44.58
2022-11-17T00:30:50.790Z,44.85
2022-11-17T00:32:52.678Z,45.08
2022-11-17T00:34:54.603Z,45.05
2022-11-17T00:36:56.501Z,45.04
2022-11-17T00:38:58.207Z,45.01
2022-11-17T00:41:00.295Z,44.95
2022-11-17T00:43:02.162Z,45.21
2022-11-17T00:45:03.991Z,45.08
2022-11-17T00:47:06.083Z,45.01
2022-11-17T00:49:07.956Z,44.89
2022-11-17T00:51:09.767Z,44.78
2022-11-17T00:53:11.849Z,45.14
2022-11-17T00:55:13.793Z,44.93
2022-11-17T00:57:15.687Z,44.79
2022-11-17T00:59:17.734Z,44.85
2022-11-17T01:01:19.654Z,44.69
2022-11-17T01:03:21.491Z,44.67
2022-11-17T01:05:23.558Z,45.04
2022-11-17T01:07:25.486Z,44.79
2022-11-17T01:09:27.366Z,44.73
2022-11-17T01:11:29.490Z,44.76
2022-11-17T01:13:31.462Z,44.83
2022-11-17T01:15:33.447Z,44.92
2022-11-17T01:17:35.365Z,45.14
2022-11-17T01:19:37.202Z,44.93
2022-11-17T01:21:39.285Z,44.69
2022-11-17T01:23:41.154Z,44.97
2022-11-17T01:25:42.946Z,44.91
2022-11-17T01:27:45.079Z,44.94
2022-11-17T01:29:46.953Z,44.71
2022-11-17T01:31:48.733Z,44.62
2022-11-17T01:33:50.840Z,45.11
2022-11-17T01:35:52.719Z,45.07
2022-11-17T01:37:54.534Z,45.17
2022-11-17T01:39:56.554Z,44.88
2022-11-17T01:41:58.503Z,44.90
2022-11-17T01:44:00.496Z,44.96
2022-11-17T01:46:02.655Z,44.81
2022-11-17T01:48:04.668Z,45.13
2022-11-17T01:50:06.602Z,44.96
2022-11-17T01:52:08.659Z,44.88
2022-11-17T01:54:10.879Z,44.63
2022-11-17T01:56:12.778Z,44.92
2022-11-17T01:58:14.566Z,45.16
2022-11-17T02:00:16.524Z,44.79
2022-11-17T02:02:18.496Z,45.09
2022-11-17T02:04:20.591Z,45.12
2022-11-17T02:06:22.392Z,44.88
2022-11-17T02:08:24.335Z,45.29
2022-11-17T02:10:26.447Z,44.85
2022-11-17T02:12:28.320Z,44.88
2022-11-17T02:14:30.095Z,44.74
2022-11-17T02:16:32.231Z,44.92
2022-11-17T02:18:34.102Z,44.99
2022-11-17T02:20:36.017Z,44.63
2022-11-17T02:22:37.973Z,44.28
2022-11-17T02:24:39.909Z,44.96
2022-11-17T02:26:41.866Z,44.96
2022-11-17T02:28:43.805Z,44.93
2022-11-17T02:30:45.731Z,45.17
2022-11-17T02:32:47.688Z,45.02
2022-11-17T02:34:49.495Z,44.80
2022-11-17T02:36:51.402Z,45.03
2022-11-17T02:38:53.358Z,45.23
2022-11-17T02:40:55.342Z,45.13
2022-11-17T02:42:57.414Z,45.23
2022-11-17T02:44:59.317Z,44.80
2022-11-17T02:47:01.123Z,45.11
2022-11-17T02:49:03.175Z,45.12
2022-11-17T02:51:05.054Z,45.25
2022-11-17T02:53:06.891Z,45.14
2022-11-17T02:55:08.820Z,45.43
2022-11-17T02:57:10.756Z,45.24
2022-11-17T02:59:12.751Z,45.36
2022-11-17T03:01:14.783Z,44.86
2022-11-17T03:03:16.725Z,45.25
2022-11-17T03:05:18.809Z,45.29
2022-11-17T03:07:20.688Z,45.50
2022-11-17T03:09:22.738Z,45.42
2022-11-17T03:11:24.607Z,45.14
2022-11-17T03:13:26.566Z,45.01
2022-11-17T03:15:28.677Z,45.23
2022-11-17T03:17:30.539Z,45.15
2022-11-17T03:19:32.334Z,45.36
2022-11-17T03:21:34.418Z,45.15
2022-11-17T03:23:36.548Z,45.05
2022-11-17T03:25:38.742Z,45.35
2022-11-17T03:27:40.600Z,45.34
2022-11-17T03:29:42.399Z,45.45
2022-11-17T03:31:44.379Z,45.19
2022-11-17T03:33:46.338Z,45.42
2022-11-17T03:35:50.792Z,45.31
2022-11-17T03:37:52.808Z,45.43
2022-11-17T03:39:54.767Z,45.07
2022-11-17T03:41:56.851Z,45.35
2022-11-17T03:43:58.721Z,45.22
2022-11-17T03:46:00.521Z,45.52
2022-11-17T03:48:02.358Z,45.61
2022-11-17T03:50:04.331Z,45.63
2022-11-17T03:52:06.127Z,45.38
2022-11-17T03:54:08.245Z,45.51
2022-11-17T03:56:10.117Z,45.74
2022-11-17T03:58:12.011Z,45.64
2022-11-17T04:00:13.964Z,45.89
2022-11-17T04:02:15.899Z,45.36
2022-11-17T04:04:17.810Z,45.61
2022-11-17T04:06:19.692Z,45.77
2022-11-17T04:08:21.480Z,45.76
2022-11-17T04:10:23.572Z,45.74
2022-11-17T04:12:25.431Z,45.47
2022-11-17T04:14:27.346Z,45.52
2022-11-17T04:16:29.295Z,45.89
2022-11-17T04:18:31.217Z,45.64
2022-11-17T04:20:33.285Z,45.68
2022-11-17T04:22:35.156Z,45.49
2022-11-17T04:24:36.958Z,45.24
2022-11-17T04:26:39.046Z,45.55
2022-11-17T04:28:40.920Z,45.81
2022-11-17T04:30:42.814Z,45.56
2022-11-17T04:32:44.754Z,45.68
2022-11-17T04:34:46.701Z,45.07
2022-11-17T04:36:48.620Z,45.57
2022-11-17T04:38:50.480Z,45.43
2022-11-17T04:40:52.259Z,45.61
2022-11-17T04:42:54.328Z,45.58
2022-11-17T04:44:56.186Z,45.61
2022-11-17T04:46:58.160Z,45.58
2022-11-17T04:49:00.054Z,45.15
2022-11-17T04:51:01.839Z,45.19
2022-11-17T04:53:03.890Z,45.52
2022-11-17T04:55:06.048Z,45.51
2022-11-17T04:57:07.972Z,45.67
2022-11-17T04:59:09.942Z,45.76
2022-11-17T05:01:11.903Z,45.99
2022-11-17T05:03:14.006Z,45.74
2022-11-17T05:05:15.816Z,45.54
2022-11-17T05:07:17.650Z,45.54
2022-11-17T05:09:19.758Z,45.95
2022-11-17T05:11:21.663Z,45.84
2022-11-17T05:13:23.626Z,45.30
2022-11-17T05:15:25.665Z,45.48
2022-11-17T05:17:27.607Z,45.34
2022-11-17T05:19:29.544Z,45.94
2022-11-17T05:21:31.595Z,45.42
2022-11-17T05:23:33.731Z,45.07
2022-11-17T05:25:36.104Z,45.04
2022-11-17T05:27:38.151Z,45.31
2022-11-17T05:29:40.034Z,44.81
2022-11-17T05:31:41.853Z,44.97
2022-11-17T05:33:44.290Z,45.59
2022-11-17T05:35:46.417Z,45.68
2022-11-17T05:37:48.288Z,45.51
2022-11-17T05:39:50.091Z,46.00
2022-11-17T05:41:52.158Z,45.73
2022-11-17T05:43:54.039Z,45.37
2022-11-17T05:45:55.828Z,45.65
2022-11-17T05:47:57.914Z,46.02
2022-11-17T05:49:59.728Z,46.09
2022-11-17T05:52:01.861Z,45.89
2022-11-17T05:54:03.770Z,45.38
2022-11-17T05:56:05.646Z,45.54
2022-11-17T05:58:07.685Z,45.65
2022-11-17T06:00:09.557Z,45.46
2022-11-17T06:02:11.348Z,45.06
2022-11-17T06:04:13.403Z,44.90
2022-11-17T06:06:15.178Z,45.15
2022-11-17T06:08:17.027Z,45.04
2022-11-17T06:10:18.905Z,44.31
2022-11-17T06:12:20.683Z,45.05
2022-11-17T06:14:22.804Z,45.15
2022-11-17T06:16:24.706Z,45.34
2022-11-17T06:18:26.565Z,45.75
2022-11-17T06:20:28.664Z,45.55
2022-11-17T06:22:30.581Z,45.04
2022-11-17T06:24:32.405Z,45.07
2022-11-17T06:26:34.289Z,45.16
2022-11-17T06:28:36.073Z,45.24
2022-11-17T06:30:38.124Z,45.37
2022-11-17T06:32:40.077Z,45.24
2022-11-17T06:34:42.010Z,44.97
2022-11-17T06:36:43.946Z,45.37
2022-11-17T06:38:45.841Z,45.08
2022-11-17T06:40:47.739Z,45.46
2022-11-17T06:42:49.669Z,45.10
2022-11-17T06:44:51.610Z,44.94
2022-11-17T06:46:53.674Z,44.88
2022-11-17T06:48:55.570Z,44.76
2022-11-17T06:50:57.309Z,44.72
2022-11-17T06:52:59.424Z,44.81
2022-11-17T06:55:01.451Z,44.84
2022-11-17T06:57:03.585Z,44.89
2022-11-17T06:59:05.528Z,44.84
2022-11-17T07:01:07.505Z,44.83
2022-11-17T07:03:09.726Z,45.01
2022-11-17T07:05:11.660Z,44.81
2022-11-17T07:07:13.673Z,45.02
2022-11-17T07:09:15.678Z,44.54
2022-11-17T07:11:17.589Z,45.26
2022-11-17T07:13:19.732Z,45.40
2022-11-17T07:15:21.710Z,44.82
2022-11-17T07:17:23.719Z,44.89
2022-11-17T07:19:25.841Z,44.91
2022-11-17T07:21:27.741Z,45.11
2022-11-17T07:23:29.788Z,45.01
2022-11-17T07:25:31.868Z,45.10
2022-11-17T07:27:33.844Z,44.97
2022-11-17T07:29:35.930Z,44.76
2022-11-17T07:31:37.888Z,44.88
2022-11-17T07:33:39.720Z,45.04
2022-11-17T07:35:41.569Z,44.82
2022-11-17T07:37:43.542Z,44.86
2022-11-17T07:39:45.392Z,44.51
2022-11-17T07:41:47.558Z,44.57
2022-11-17T07:43:49.539Z,44.66
2022-11-17T07:45:51.635Z,44.86
2022-11-17T07:47:53.552Z,44.95
2022-11-17T07:49:55.502Z,45.16
2022-11-17T07:51:57.594Z,45.25
2022-11-17T07:53:59.925Z,44.99
2022-11-17T07:56:01.978Z,44.69
2022-11-17T07:58:04.123Z,44.73
2022-11-17T08:00:06.034Z,44.99
2022-11-17T08:02:07.999Z,45.13
2022-11-17T08:04:09.957Z,45.26
2022-11-17T08:06:11.960Z,44.56
2022-11-17T08:08:14.032Z,44.74
2022-11-17T08:10:15.941Z,44.87
2022-11-17T08:12:17.906Z,45.21
2022-11-17T08:14:19.855Z,44.93
2022-11-17T08:16:21.883Z,44.70
2022-11-17T08:18:23.908Z,45.07
2022-11-17T08:20:26.044Z,45.07
2022-11-17T08:22:27.940Z,44.96
2022-11-17T08:24:29.784Z,45.03
2022-11-17T08:26:31.959Z,44.80
2022-11-17T08:28:34.367Z,45.35
2022-11-17T08:30:36.565Z,45.23
2022-11-17T08:32:38.565Z,45.56
2022-11-17T08:34:40.607Z,45.15
2022-11-17T08:36:42.353Z,45.12
2022-11-17T08:38:44.398Z,45.47
2022-11-17T08:40:46.471Z,45.43
2022-11-17T08:42:48.397Z,45.07
2022-11-17T08:44:50.402Z,45.18
2022-11-17T08:46:52.377Z,45.08
2022-11-17T08:48:57.130Z,45.14
2022-11-17T08:50:59.528Z,45.08
2022-11-17T08:53:01.483Z,45.48
2022-11-17T08:55:03.421Z,45.56
2022-11-17T08:57:05.635Z,45.24
2022-11-17T08:59:07.698Z,45.04
2022-11-17T09:01:09.767Z,45.17
2022-11-17T09:03:11.769Z,45.46
2022-11-17T09:05:13.666Z,45.30
2022-11-17T09:07:15.784Z,45.12
2022-11-17T09:09:17.765Z,44.94
2022-11-17T09:11:19.706Z,45.45
2022-11-17T09:13:21.654Z,44.88
2022-11-17T09:15:23.528Z,45.08
2022-11-17T09:17:25.378Z,45.01
2022-11-17T09:19:27.465Z,44.99
2022-11-17T09:21:29.439Z,44.83
2022-11-17T09:23:31.480Z,44.99
2022-11-17T09:25:33.406Z,44.95
2022-11-17T09:27:35.360Z,44.98
2022-11-17T09:29:37.493Z,44.71
2022-11-17T09:31:39.452Z,45.30
2022-11-17T09:33:41.368Z,45.07
2022-11-17T09:35:43.269Z,46.28
2022-11-17T09:37:45.189Z,45.69
2022-11-17T09:39:47.029Z,45.01
2022-11-17T09:41:49.497Z,44.77
2022-11-17T09:43:51.427Z,44.94
2022-11-17T09:45:53.220Z,44.63
2022-11-17T09:48:06.982Z,44.51
2022-11-17T09:50:17.031Z,44.33
2022-11-17T09:52:18.971Z,44.33
2022-11-17T09:54:21.024Z,44.17
2022-11-17T09:56:22.919Z,44.29
2022-11-17T09:58:24.788Z,44.16
2022-11-17T10:00:26.897Z,44.67
2022-11-17T10:02:28.926Z,44.39
2022-11-17T10:04:30.913Z,44.11
2022-11-17T10:06:32.868Z,44.08
2022-11-17T10:08:34.680Z,44.11
2022-11-17T10:10:36.614Z,43.99
2022-11-17T10:12:38.735Z,43.99
2022-11-17T10:14:40.632Z,44.06
2022-11-17T10:16:42.577Z,43.83
2022-11-17T10:18:44.548Z,43.94
2022-11-17T10:20:46.504Z,44.07
2022-11-17T10:22:48.387Z,44.00
2022-11-17T10:24:50.519Z,44.46
2022-11-17T10:26:52.536Z,44.26
2022-11-17T10:28:54.464Z,44.17
2022-11-17T10:30:56.381Z,44.12
2022-11-17T10:32:58.385Z,44.18
2022-11-17T10:35:00.327Z,44.04
2022-11-17T10:37:02.216Z,44.61
2022-11-17T10:39:04.190Z,44.43
2022-11-17T10:41:06.203Z,44.16
2022-11-17T10:43:08.086Z,44.28
2022-11-17T10:45:09.901Z,44.10
2022-11-17T10:47:11.892Z,44.76
2022-11-17T10:49:13.892Z,44.68
2022-11-17T10:51:15.585Z,43.99
2022-11-17T10:53:17.579Z,43.62
2022-11-17T10:55:19.588Z,44.15
2022-11-17T10:57:21.656Z,44.35
2022-11-17T10:59:23.650Z,45.63
2022-11-17T11:01:26.006Z,44.39
2022-11-17T11:03:28.027Z,44.19
2022-11-17T11:05:30.033Z,44.07
2022-11-17T11:07:32.235Z,44.26
2022-11-17T11:09:34.245Z,44.07
2022-11-17T11:11:36.586Z,44.34
2022-11-17T11:13:38.764Z,44.28
2022-11-17T11:15:40.633Z,44.07
2022-11-17T11:17:42.532Z,43.81
2022-11-17T11:19:44.595Z,43.65
2022-11-17T11:21:46.506Z,43.52
2022-11-17T11:23:48.234Z,43.63
2022-11-17T11:25:50.411Z,43.78
2022-11-17T11:27:52.430Z,43.54
2022-11-17T11:29:54.337Z,44.15
2022-11-17T11:31:56.188Z,44.20
2022-11-17T11:33:58.326Z,44.22
2022-11-17T11:36:00.032Z,44.41
2022-11-17T11:38:02.163Z,44.34
2022-11-17T11:40:04.087Z,44.09
2022-11-17T11:42:08.148Z,43.97
2022-11-17T11:44:10.510Z,43.99
2022-11-17T11:46:12.408Z,44.03
2022-11-17T11:48:14.205Z,44.06
2022-11-17T11:50:16.162Z,44.31
2022-11-17T11:52:18.114Z,44.36
2022-11-17T11:54:20.022Z,44.27
2022-11-17T11:56:22.092Z,44.36
2022-11-17T11:58:24.093Z,44.39
2022-11-17T12:00:26.103Z,44.24
2022-11-17T12:02:28.243Z,43.95
2022-11-17T12:04:30.134Z,44.21
2022-11-17T12:06:32.111Z,44.35
2022-11-17T12:08:34.216Z,44.27
2022-11-17T12:10:36.103Z,44.50
2022-11-17T12:12:38.008Z,44.18
2022-11-17T12:14:40.093Z,43.93
2022-11-17T12:16:41.979Z,43.87
2022-11-17T12:18:43.831Z,43.69
2022-11-17T12:20:46.016Z,43.74
2022-11-17T12:22:47.721Z,43.94
2022-11-17T12:24:49.729Z,43.99
2022-11-17T12:26:51.910Z,43.92
2022-11-17T12:28:53.863Z,43.79
2022-11-17T12:30:55.803Z,43.80
2022-11-17T12:32:57.992Z,45.17
2022-11-17T12:34:59.881Z,44.67
2022-11-17T12:37:01.680Z,44.51
2022-11-17T12:39:03.714Z,44.10
2022-11-17T12:41:05.634Z,43.90
2022-11-17T12:43:07.495Z,44.20
2022-11-17T12:45:09.553Z,44.14
2022-11-17T12:47:11.438Z,44.08
2022-11-17T12:49:13.593Z,44.10
2022-11-17T12:51:15.588Z,44.17
2022-11-17T12:53:17.440Z,44.64
2022-11-17T12:55:19.440Z,44.70
2022-11-17T12:57:21.543Z,44.87
2022-11-17T12:59:26.208Z,44.53
2022-11-17T13:01:28.192Z,44.74
2022-11-17T13:03:30.270Z,44.31
2022-11-17T13:05:32.106Z,44.29
2022-11-17T13:07:34.093Z,44.28
2022-11-17T13:09:36.100Z,44.39
2022-11-17T13:11:38.051Z,44.24
2022-11-17T13:13:45.483Z,44.39
2022-11-17T13:15:48.767Z,44.37
2022-11-17T13:17:50.757Z,44.79
2022-11-17T13:19:52.652Z,44.44
2022-11-17T13:21:54.530Z,44.31
2022-11-17T13:23:56.421Z,44.25
2022-11-17T13:25:58.514Z,44.28
2022-11-17T13:28:04.727Z,44.22
2022-11-17T13:30:07.416Z,44.07
2022-11-17T13:32:09.385Z,44.22
2022-11-17T13:34:11.471Z,44.36
2022-11-17T13:36:13.723Z,44.40
2022-11-17T13:38:15.812Z,44.22
2022-11-17T13:40:17.756Z,44.40
2022-11-17T13:42:19.811Z,44.28
2022-11-17T13:44:21.889Z,44.42
2022-11-17T13:46:23.844Z,44.32
2022-11-17T13:48:25.814Z,44.32
2022-11-17T13:50:27.911Z,44.36
2022-11-17T13:52:34.607Z,44.37
2022-11-17T13:54:39.036Z,44.24
2022-11-17T13:56:41.134Z,44.48
2022-11-17T13:58:43.266Z,44.05
2022-11-17T14:00:45.180Z,44.63
2022-11-17T14:02:47.334Z,44.33
2022-11-17T14:04:49.358Z,44.59
2022-11-17T14:06:51.277Z,44.40
2022-11-17T14:08:53.195Z,44.58
2022-11-17T14:10:55.232Z,44.62
2022-11-17T14:12:57.137Z,44.32
2022-11-17T14:14:59.068Z,44.37
2022-11-17T14:17:01.021Z,44.49
2022-11-17T14:19:03.006Z,44.69
2022-11-17T14:21:04.976Z,44.52
2022-11-17T14:23:06.909Z,44.36
2022-11-17T14:25:08.883Z,44.65
2022-11-17T14:27:10.992Z,44.59
2022-11-17T14:29:12.919Z,44.28
2022-11-17T14:31:14.850Z,44.33
2022-11-17T14:33:16.921Z,44.40
2022-11-17T14:37:25.755Z,44.51
2022-11-17T14:39:27.816Z,44.44
2022-11-17T14:41:29.692Z,44.26
2022-11-17T14:43:31.699Z,44.36
2022-11-17T14:45:33.707Z,44.50
2022-11-17T14:47:35.607Z,44.29
2022-11-17T14:49:37.424Z,44.26
2022-11-17T14:51:39.301Z,44.38
2022-11-17T14:53:42.119Z,44.53
2022-11-17T14:55:44.220Z,44.22
2022-11-17T14:57:46.153Z,44.51
2022-11-17T14:59:48.199Z,44.29
2022-11-17T15:01:50.089Z,44.27
2022-11-17T15:03:52.117Z,44.40
2022-11-17T15:05:54.083Z,44.34
2022-11-17T15:07:55.954Z,44.30
2022-11-17T15:09:58.079Z,44.38
2022-11-17T15:12:00.039Z,44.35
2022-11-17T15:14:01.959Z,44.47
2022-11-17T15:16:04.050Z,44.16
2022-11-17T15:18:06.019Z,44.40
2022-11-17T15:20:07.925Z,44.34
2022-11-17T15:22:11.252Z,44.82
2022-11-17T15:24:13.659Z,44.47
2022-11-17T15:26:15.801Z,44.60
2022-11-17T15:28:22.405Z,44.37
2022-11-17T15:30:25.131Z,44.54
2022-11-17T15:32:27.085Z,44.40
2022-11-17T15:34:28.978Z,44.19
2022-11-17T15:36:30.956Z,44.40
